sensor_id;sensor_type;location;lat;lon;timestamp;P1;durP1;ratioP1;P2;durP2;ratioP2
30127;SDS011;16942;53.196;6.592;2023-05-07T00:01:48;33.50;;;20.77;;
30127;SDS011;16942;53.196;6.592;2023-05-07T00:04:14;29.70;;;20.70;;
30127;SDS011;16942;53.196;6.592;2023-05-07T00:06:40;31.87;;;19.37;;
30127;SDS011;16942;53.196;6.592;2023-05-07T00:09:07;34.20;;;20.47;;
30127;SDS011;16942;53.196;6.592;2023-05-07T00:11:33;30.73;;;18.90;;
30127;SDS011;16942;53.196;6.592;2023-05-07T00:13:59;28.27;;;19.03;;
30127;SDS011;16942;53.196;6.592;2023-05-07T00:16:26;32.20;;;21.13;;
30127;SDS011;16942;53.196;6.592;2023-05-07T00:18:52;32.60;;;20.50;;
30127;SDS011;16942;53.196;6.592;2023-05-07T00:21:18;31.37;;;20.80;;
30127;SDS011;16942;53.196;6.592;2023-05-07T00:23:44;36.27;;;21.13;;
30127;SDS011;16942;53.196;6.592;2023-05-07T00:26:10;28.73;;;18.80;;
30127;SDS011;16942;53.196;6.592;2023-05-07T00:28:36;30.43;;;19.53;;
30127;SDS011;16942;53.196;6.592;2023-05-07T00:31:02;31.53;;;21.17;;
30127;SDS011;16942;53.196;6.592;2023-05-07T00:33:28;35.07;;;23.27;;
30127;SDS011;16942;53.196;6.592;2023-05-07T00:35:54;32.60;;;22.63;;
30127;SDS011;16942;53.196;6.592;2023-05-07T00:38:20;38.97;;;25.43;;
30127;SDS011;16942;53.196;6.592;2023-05-07T00:40:46;41.10;;;26.63;;
30127;SDS011;16942;53.196;6.592;2023-05-07T00:43:12;41.50;;;26.57;;
30127;SDS011;16942;53.196;6.592;2023-05-07T00:45:38;34.23;;;24.10;;
30127;SDS011;16942;53.196;6.592;2023-05-07T00:48:05;40.87;;;26.00;;
30127;SDS011;16942;53.196;6.592;2023-05-07T00:50:31;41.13;;;27.40;;
30127;SDS011;16942;53.196;6.592;2023-05-07T00:52:58;38.77;;;27.03;;
30127;SDS011;16942;53.196;6.592;2023-05-07T00:55:24;38.80;;;24.43;;
30127;SDS011;16942;53.196;6.592;2023-05-07T00:57:50;37.00;;;22.53;;
30127;SDS011;16942;53.196;6.592;2023-05-07T01:00:17;35.80;;;23.13;;
30127;SDS011;16942;53.196;6.592;2023-05-07T01:02:43;38.17;;;23.10;;
30127;SDS011;16942;53.196;6.592;2023-05-07T01:05:13;37.43;;;24.00;;
30127;SDS011;16942;53.196;6.592;2023-05-07T01:07:40;37.23;;;23.40;;
30127;SDS011;16942;53.196;6.592;2023-05-07T01:10:06;38.90;;;22.90;;
30127;SDS011;16942;53.196;6.592;2023-05-07T01:12:33;42.63;;;23.60;;
30127;SDS011;16942;53.196;6.592;2023-05-07T01:15:00;35.97;;;23.83;;
30127;SDS011;16942;53.196;6.592;2023-05-07T01:17:26;37.47;;;21.67;;
30127;SDS011;16942;53.196;6.592;2023-05-07T01:19:52;35.73;;;23.57;;
30127;SDS011;16942;53.196;6.592;2023-05-07T01:22:31;36.47;;;22.90;;
30127;SDS011;16942;53.196;6.592;2023-05-07T01:24:58;34.93;;;23.17;;
30127;SDS011;16942;53.196;6.592;2023-05-07T01:27:25;34.80;;;22.37;;
30127;SDS011;16942;53.196;6.592;2023-05-07T01:29:51;38.07;;;23.63;;
30127;SDS011;16942;53.196;6.592;2023-05-07T01:32:18;40.73;;;24.43;;
30127;SDS011;16942;53.196;6.592;2023-05-07T01:34:44;37.57;;;23.33;;
30127;SDS011;16942;53.196;6.592;2023-05-07T01:37:11;37.10;;;23.47;;
30127;SDS011;16942;53.196;6.592;2023-05-07T01:39:38;42.70;;;25.60;;
30127;SDS011;16942;53.196;6.592;2023-05-07T01:42:05;38.23;;;23.53;;
30127;SDS011;16942;53.196;6.592;2023-05-07T01:44:31;39.93;;;25.27;;
30127;SDS011;16942;53.196;6.592;2023-05-07T01:46:58;37.70;;;22.83;;
30127;SDS011;16942;53.196;6.592;2023-05-07T01:49:24;36.03;;;23.33;;
30127;SDS011;16942;53.196;6.592;2023-05-07T01:51:51;37.47;;;21.90;;
30127;SDS011;16942;53.196;6.592;2023-05-07T01:54:17;41.30;;;22.73;;
30127;SDS011;16942;53.196;6.592;2023-05-07T01:56:43;36.33;;;22.63;;
30127;SDS011;16942;53.196;6.592;2023-05-07T01:59:09;39.23;;;22.70;;
30127;SDS011;16942;53.196;6.592;2023-05-07T02:01:35;38.73;;;21.93;;
30127;SDS011;16942;53.196;6.592;2023-05-07T02:04:01;37.43;;;22.63;;
30127;SDS011;16942;53.196;6.592;2023-05-07T02:06:27;35.50;;;22.13;;
30127;SDS011;16942;53.196;6.592;2023-05-07T02:08:53;32.17;;;21.50;;
30127;SDS011;16942;53.196;6.592;2023-05-07T02:11:19;35.47;;;23.57;;
30127;SDS011;16942;53.196;6.592;2023-05-07T02:13:45;36.33;;;23.10;;
30127;SDS011;16942;53.196;6.592;2023-05-07T02:16:11;34.40;;;22.03;;
30127;SDS011;16942;53.196;6.592;2023-05-07T02:18:39;43.27;;;25.27;;
30127;SDS011;16942;53.196;6.592;2023-05-07T02:21:05;44.83;;;26.17;;
30127;SDS011;16942;53.196;6.592;2023-05-07T02:23:31;35.57;;;24.00;;
30127;SDS011;16942;53.196;6.592;2023-05-07T02:25:57;39.00;;;24.77;;
30127;SDS011;16942;53.196;6.592;2023-05-07T02:28:23;47.03;;;28.57;;
30127;SDS011;16942;53.196;6.592;2023-05-07T02:30:49;45.87;;;27.70;;
30127;SDS011;16942;53.196;6.592;2023-05-07T02:33:15;39.73;;;23.63;;
30127;SDS011;16942;53.196;6.592;2023-05-07T02:35:41;42.87;;;26.03;;
30127;SDS011;16942;53.196;6.592;2023-05-07T02:38:07;45.10;;;25.30;;
30127;SDS011;16942;53.196;6.592;2023-05-07T02:40:35;39.90;;;24.30;;
30127;SDS011;16942;53.196;6.592;2023-05-07T02:43:04;38.13;;;22.73;;
30127;SDS011;16942;53.196;6.592;2023-05-07T02:45:31;36.63;;;22.07;;
30127;SDS011;16942;53.196;6.592;2023-05-07T02:47:57;42.33;;;23.30;;
30127;SDS011;16942;53.196;6.592;2023-05-07T02:50:23;39.23;;;23.47;;
30127;SDS011;16942;53.196;6.592;2023-05-07T02:52:50;35.13;;;22.00;;
30127;SDS011;16942;53.196;6.592;2023-05-07T02:55:16;43.77;;;24.33;;
30127;SDS011;16942;53.196;6.592;2023-05-07T02:57:42;37.97;;;22.00;;
30127;SDS011;16942;53.196;6.592;2023-05-07T03:00:12;38.27;;;23.33;;
30127;SDS011;16942;53.196;6.592;2023-05-07T03:02:38;38.03;;;23.60;;
30127;SDS011;16942;53.196;6.592;2023-05-07T03:05:04;39.27;;;23.73;;
30127;SDS011;16942;53.196;6.592;2023-05-07T03:07:30;42.03;;;24.43;;
30127;SDS011;16942;53.196;6.592;2023-05-07T03:09:56;35.93;;;23.43;;
30127;SDS011;16942;53.196;6.592;2023-05-07T03:12:22;39.67;;;23.83;;
30127;SDS011;16942;53.196;6.592;2023-05-07T03:14:49;41.00;;;25.10;;
30127;SDS011;16942;53.196;6.592;2023-05-07T03:17:15;40.67;;;23.47;;
30127;SDS011;16942;53.196;6.592;2023-05-07T03:19:41;43.97;;;25.67;;
30127;SDS011;16942;53.196;6.592;2023-05-07T03:22:07;40.97;;;23.40;;
30127;SDS011;16942;53.196;6.592;2023-05-07T03:24:33;37.77;;;23.03;;
30127;SDS011;16942;53.196;6.592;2023-05-07T03:26:59;39.10;;;24.20;;
30127;SDS011;16942;53.196;6.592;2023-05-07T03:29:26;41.50;;;26.00;;
30127;SDS011;16942;53.196;6.592;2023-05-07T03:31:52;43.30;;;25.53;;
30127;SDS011;16942;53.196;6.592;2023-05-07T03:34:18;51.00;;;29.07;;
30127;SDS011;16942;53.196;6.592;2023-05-07T03:36:47;46.60;;;26.87;;
30127;SDS011;16942;53.196;6.592;2023-05-07T03:39:13;44.70;;;27.97;;
30127;SDS011;16942;53.196;6.592;2023-05-07T03:41:39;41.67;;;25.47;;
30127;SDS011;16942;53.196;6.592;2023-05-07T03:44:05;46.40;;;25.57;;
30127;SDS011;16942;53.196;6.592;2023-05-07T03:46:32;46.60;;;27.60;;
30127;SDS011;16942;53.196;6.592;2023-05-07T03:48:59;40.83;;;24.77;;
30127;SDS011;16942;53.196;6.592;2023-05-07T03:51:25;44.57;;;24.47;;
30127;SDS011;16942;53.196;6.592;2023-05-07T03:53:51;45.27;;;26.33;;
30127;SDS011;16942;53.196;6.592;2023-05-07T03:56:22;44.93;;;24.97;;
30127;SDS011;16942;53.196;6.592;2023-05-07T03:58:51;42.53;;;23.73;;
30127;SDS011;16942;53.196;6.592;2023-05-07T04:01:17;41.77;;;25.37;;
30127;SDS011;16942;53.196;6.592;2023-05-07T04:03:43;43.17;;;24.73;;
30127;SDS011;16942;53.196;6.592;2023-05-07T04:06:09;41.83;;;24.50;;
30127;SDS011;16942;53.196;6.592;2023-05-07T04:08:35;45.43;;;24.57;;
30127;SDS011;16942;53.196;6.592;2023-05-07T04:11:01;42.07;;;24.33;;
30127;SDS011;16942;53.196;6.592;2023-05-07T04:13:27;39.80;;;24.30;;
30127;SDS011;16942;53.196;6.592;2023-05-07T04:15:54;36.63;;;22.70;;
30127;SDS011;16942;53.196;6.592;2023-05-07T04:18:20;42.10;;;24.57;;
30127;SDS011;16942;53.196;6.592;2023-05-07T04:20:47;41.03;;;24.37;;
30127;SDS011;16942;53.196;6.592;2023-05-07T04:23:14;43.07;;;24.93;;
30127;SDS011;16942;53.196;6.592;2023-05-07T04:25:40;42.97;;;23.70;;
30127;SDS011;16942;53.196;6.592;2023-05-07T04:28:06;42.17;;;24.47;;
30127;SDS011;16942;53.196;6.592;2023-05-07T04:30:32;40.50;;;23.73;;
30127;SDS011;16942;53.196;6.592;2023-05-07T04:32:58;47.53;;;25.90;;
30127;SDS011;16942;53.196;6.592;2023-05-07T04:35:25;44.23;;;24.37;;
30127;SDS011;16942;53.196;6.592;2023-05-07T04:37:51;40.47;;;23.70;;
30127;SDS011;16942;53.196;6.592;2023-05-07T04:40:17;42.30;;;23.37;;
30127;SDS011;16942;53.196;6.592;2023-05-07T04:42:43;36.67;;;21.63;;
30127;SDS011;16942;53.196;6.592;2023-05-07T04:45:09;43.00;;;24.13;;
30127;SDS011;16942;53.196;6.592;2023-05-07T04:47:35;39.80;;;23.33;;
30127;SDS011;16942;53.196;6.592;2023-05-07T04:50:01;40.00;;;22.57;;
30127;SDS011;16942;53.196;6.592;2023-05-07T04:52:27;42.13;;;23.17;;
30127;SDS011;16942;53.196;6.592;2023-05-07T04:54:53;35.40;;;21.17;;
30127;SDS011;16942;53.196;6.592;2023-05-07T04:57:19;37.63;;;21.67;;
30127;SDS011;16942;53.196;6.592;2023-05-07T04:59:45;34.43;;;21.93;;
30127;SDS011;16942;53.196;6.592;2023-05-07T05:02:11;44.30;;;21.80;;
30127;SDS011;16942;53.196;6.592;2023-05-07T05:04:37;35.97;;;21.90;;
30127;SDS011;16942;53.196;6.592;2023-05-07T05:07:03;40.07;;;21.80;;
30127;SDS011;16942;53.196;6.592;2023-05-07T05:09:30;34.10;;;21.33;;
30127;SDS011;16942;53.196;6.592;2023-05-07T05:11:56;35.40;;;21.93;;
30127;SDS011;16942;53.196;6.592;2023-05-07T05:14:22;33.30;;;20.70;;
30127;SDS011;16942;53.196;6.592;2023-05-07T05:16:48;36.40;;;21.80;;
30127;SDS011;16942;53.196;6.592;2023-05-07T05:19:14;34.60;;;21.27;;
30127;SDS011;16942;53.196;6.592;2023-05-07T05:21:40;36.77;;;21.27;;
30127;SDS011;16942;53.196;6.592;2023-05-07T05:24:06;37.67;;;22.10;;
30127;SDS011;16942;53.196;6.592;2023-05-07T05:26:32;37.67;;;21.97;;
30127;SDS011;16942;53.196;6.592;2023-05-07T05:28:58;35.07;;;21.87;;
30127;SDS011;16942;53.196;6.592;2023-05-07T05:31:24;38.03;;;22.33;;
30127;SDS011;16942;53.196;6.592;2023-05-07T05:33:50;35.93;;;21.83;;
30127;SDS011;16942;53.196;6.592;2023-05-07T05:36:16;33.17;;;21.77;;
30127;SDS011;16942;53.196;6.592;2023-05-07T05:38:42;31.53;;;20.03;;
30127;SDS011;16942;53.196;6.592;2023-05-07T05:41:09;36.27;;;20.63;;
30127;SDS011;16942;53.196;6.592;2023-05-07T05:43:35;33.03;;;19.40;;
30127;SDS011;16942;53.196;6.592;2023-05-07T05:46:02;29.53;;;19.73;;
30127;SDS011;16942;53.196;6.592;2023-05-07T05:48:29;33.10;;;20.77;;
30127;SDS011;16942;53.196;6.592;2023-05-07T05:50:55;29.17;;;19.53;;
30127;SDS011;16942;53.196;6.592;2023-05-07T05:53:21;33.23;;;20.00;;
30127;SDS011;16942;53.196;6.592;2023-05-07T05:55:47;31.93;;;20.00;;
30127;SDS011;16942;53.196;6.592;2023-05-07T05:58:13;36.90;;;21.07;;
30127;SDS011;16942;53.196;6.592;2023-05-07T06:00:40;29.57;;;19.73;;
30127;SDS011;16942;53.196;6.592;2023-05-07T06:03:06;31.63;;;19.87;;
30127;SDS011;16942;53.196;6.592;2023-05-07T06:05:32;36.60;;;20.07;;
30127;SDS011;16942;53.196;6.592;2023-05-07T06:07:58;33.93;;;22.47;;
30127;SDS011;16942;53.196;6.592;2023-05-07T06:10:24;37.10;;;21.33;;
30127;SDS011;16942;53.196;6.592;2023-05-07T06:12:51;28.93;;;20.20;;
30127;SDS011;16942;53.196;6.592;2023-05-07T06:15:17;36.37;;;22.50;;
30127;SDS011;16942;53.196;6.592;2023-05-07T06:17:43;38.10;;;22.90;;
30127;SDS011;16942;53.196;6.592;2023-05-07T06:20:09;36.83;;;23.60;;
30127;SDS011;16942;53.196;6.592;2023-05-07T06:22:35;39.60;;;25.10;;
30127;SDS011;16942;53.196;6.592;2023-05-07T06:25:01;36.63;;;21.80;;
30127;SDS011;16942;53.196;6.592;2023-05-07T06:27:27;34.70;;;22.90;;
30127;SDS011;16942;53.196;6.592;2023-05-07T06:29:53;36.97;;;23.33;;
30127;SDS011;16942;53.196;6.592;2023-05-07T06:32:19;33.97;;;22.30;;
30127;SDS011;16942;53.196;6.592;2023-05-07T06:34:45;37.00;;;21.50;;
30127;SDS011;16942;53.196;6.592;2023-05-07T06:37:11;34.93;;;21.80;;
30127;SDS011;16942;53.196;6.592;2023-05-07T06:39:37;30.67;;;20.50;;
30127;SDS011;16942;53.196;6.592;2023-05-07T06:42:03;30.80;;;20.40;;
30127;SDS011;16942;53.196;6.592;2023-05-07T06:44:30;32.53;;;20.60;;
30127;SDS011;16942;53.196;6.592;2023-05-07T06:46:56;30.70;;;20.43;;
30127;SDS011;16942;53.196;6.592;2023-05-07T06:49:22;32.67;;;19.73;;
30127;SDS011;16942;53.196;6.592;2023-05-07T06:51:48;31.40;;;20.00;;
30127;SDS011;16942;53.196;6.592;2023-05-07T06:54:14;34.67;;;21.00;;
30127;SDS011;16942;53.196;6.592;2023-05-07T06:56:40;32.10;;;19.30;;
30127;SDS011;16942;53.196;6.592;2023-05-07T06:59:06;30.63;;;19.47;;
30127;SDS011;16942;53.196;6.592;2023-05-07T07:01:32;28.80;;;18.90;;
30127;SDS011;16942;53.196;6.592;2023-05-07T07:03:59;30.03;;;18.83;;
30127;SDS011;16942;53.196;6.592;2023-05-07T07:06:25;29.57;;;18.57;;
30127;SDS011;16942;53.196;6.592;2023-05-07T07:08:51;29.13;;;18.53;;
30127;SDS011;16942;53.196;6.592;2023-05-07T07:11:17;28.37;;;18.47;;
30127;SDS011;16942;53.196;6.592;2023-05-07T07:13:43;27.37;;;17.87;;
30127;SDS011;16942;53.196;6.592;2023-05-07T07:16:10;30.87;;;18.50;;
30127;SDS011;16942;53.196;6.592;2023-05-07T07:18:36;31.07;;;18.20;;
30127;SDS011;16942;53.196;6.592;2023-05-07T07:21:02;27.73;;;17.87;;
30127;SDS011;16942;53.196;6.592;2023-05-07T07:23:28;28.23;;;17.83;;
30127;SDS011;16942;53.196;6.592;2023-05-07T07:25:54;28.10;;;18.57;;
30127;SDS011;16942;53.196;6.592;2023-05-07T07:28:20;29.20;;;18.77;;
30127;SDS011;16942;53.196;6.592;2023-05-07T07:30:47;36.43;;;18.37;;
30127;SDS011;16942;53.196;6.592;2023-05-07T07:33:13;31.53;;;19.43;;
30127;SDS011;16942;53.196;6.592;2023-05-07T07:35:39;34.13;;;18.83;;
30127;SDS011;16942;53.196;6.592;2023-05-07T07:38:05;29.33;;;18.97;;
30127;SDS011;16942;53.196;6.592;2023-05-07T07:40:31;35.53;;;19.10;;
30127;SDS011;16942;53.196;6.592;2023-05-07T07:42:57;33.77;;;20.57;;
30127;SDS011;16942;53.196;6.592;2023-05-07T07:45:24;31.00;;;19.37;;
30127;SDS011;16942;53.196;6.592;2023-05-07T07:47:50;29.27;;;19.07;;
30127;SDS011;16942;53.196;6.592;2023-05-07T07:50:17;28.53;;;18.83;;
30127;SDS011;16942;53.196;6.592;2023-05-07T07:52:43;31.00;;;19.33;;
30127;SDS011;16942;53.196;6.592;2023-05-07T07:55:09;32.17;;;19.53;;
30127;SDS011;16942;53.196;6.592;2023-05-07T07:57:35;33.00;;;19.83;;
30127;SDS011;16942;53.196;6.592;2023-05-07T08:00:01;31.40;;;19.57;;
30127;SDS011;16942;53.196;6.592;2023-05-07T08:02:27;28.57;;;18.30;;
30127;SDS011;16942;53.196;6.592;2023-05-07T08:04:53;34.97;;;20.93;;
30127;SDS011;16942;53.196;6.592;2023-05-07T08:07:20;28.67;;;17.90;;
30127;SDS011;16942;53.196;6.592;2023-05-07T08:09:47;28.70;;;18.10;;
30127;SDS011;16942;53.196;6.592;2023-05-07T08:12:13;32.67;;;19.10;;
30127;SDS011;16942;53.196;6.592;2023-05-07T08:14:39;30.27;;;19.10;;
30127;SDS011;16942;53.196;6.592;2023-05-07T08:17:06;30.80;;;18.43;;
30127;SDS011;16942;53.196;6.592;2023-05-07T08:19:32;31.10;;;17.83;;
30127;SDS011;16942;53.196;6.592;2023-05-07T08:21:58;31.20;;;18.60;;
30127;SDS011;16942;53.196;6.592;2023-05-07T08:24:24;28.23;;;18.37;;
30127;SDS011;16942;53.196;6.592;2023-05-07T08:26:50;26.77;;;18.73;;
30127;SDS011;16942;53.196;6.592;2023-05-07T08:29:16;32.33;;;19.00;;
30127;SDS011;16942;53.196;6.592;2023-05-07T08:31:42;31.27;;;19.33;;
30127;SDS011;16942;53.196;6.592;2023-05-07T08:34:08;29.40;;;18.43;;
30127;SDS011;16942;53.196;6.592;2023-05-07T08:36:34;32.07;;;20.37;;
30127;SDS011;16942;53.196;6.592;2023-05-07T08:39:00;27.93;;;18.40;;
30127;SDS011;16942;53.196;6.592;2023-05-07T08:41:26;32.53;;;19.70;;
30127;SDS011;16942;53.196;6.592;2023-05-07T08:43:52;29.90;;;18.57;;
30127;SDS011;16942;53.196;6.592;2023-05-07T08:46:19;28.90;;;18.23;;
30127;SDS011;16942;53.196;6.592;2023-05-07T08:48:49;27.20;;;18.37;;
30127;SDS011;16942;53.196;6.592;2023-05-07T08:51:16;27.13;;;18.03;;
30127;SDS011;16942;53.196;6.592;2023-05-07T08:53:43;34.97;;;19.20;;
30127;SDS011;16942;53.196;6.592;2023-05-07T08:56:09;31.40;;;17.93;;
30127;SDS011;16942;53.196;6.592;2023-05-07T08:58:35;32.53;;;20.37;;
30127;SDS011;16942;53.196;6.592;2023-05-07T09:01:03;27.87;;;18.47;;
30127;SDS011;16942;53.196;6.592;2023-05-07T09:03:31;28.30;;;17.50;;
30127;SDS011;16942;53.196;6.592;2023-05-07T09:05:57;28.87;;;19.00;;
30127;SDS011;16942;53.196;6.592;2023-05-07T09:08:26;30.63;;;18.77;;
30127;SDS011;16942;53.196;6.592;2023-05-07T09:10:53;30.00;;;18.83;;
30127;SDS011;16942;53.196;6.592;2023-05-07T09:13:19;29.20;;;18.83;;
30127;SDS011;16942;53.196;6.592;2023-05-07T09:15:45;29.23;;;18.00;;
30127;SDS011;16942;53.196;6.592;2023-05-07T09:18:12;26.23;;;18.53;;
30127;SDS011;16942;53.196;6.592;2023-05-07T09:20:39;32.43;;;18.43;;
30127;SDS011;16942;53.196;6.592;2023-05-07T09:23:05;27.93;;;18.60;;
30127;SDS011;16942;53.196;6.592;2023-05-07T09:25:32;29.77;;;18.53;;
30127;SDS011;16942;53.196;6.592;2023-05-07T09:27:59;31.67;;;19.97;;
30127;SDS011;16942;53.196;6.592;2023-05-07T09:30:31;28.47;;;18.60;;
30127;SDS011;16942;53.196;6.592;2023-05-07T09:32:58;26.67;;;18.23;;
30127;SDS011;16942;53.196;6.592;2023-05-07T09:35:25;26.33;;;17.63;;
30127;SDS011;16942;53.196;6.592;2023-05-07T09:37:55;26.40;;;17.43;;
30127;SDS011;16942;53.196;6.592;2023-05-07T09:40:23;26.83;;;16.07;;
30127;SDS011;16942;53.196;6.592;2023-05-07T09:42:49;26.23;;;17.73;;
30127;SDS011;16942;53.196;6.592;2023-05-07T09:45:16;27.10;;;17.80;;
30127;SDS011;16942;53.196;6.592;2023-05-07T09:47:45;26.03;;;18.23;;
30127;SDS011;16942;53.196;6.592;2023-05-07T09:50:12;28.03;;;18.10;;
30127;SDS011;16942;53.196;6.592;2023-05-07T09:52:41;29.07;;;18.07;;
30127;SDS011;16942;53.196;6.592;2023-05-07T09:55:08;26.60;;;17.17;;
30127;SDS011;16942;53.196;6.592;2023-05-07T09:57:34;27.07;;;16.93;;
30127;SDS011;16942;53.196;6.592;2023-05-07T10:00:02;27.07;;;16.40;;
30127;SDS011;16942;53.196;6.592;2023-05-07T10:02:31;23.97;;;16.50;;
30127;SDS011;16942;53.196;6.592;2023-05-07T10:04:57;28.87;;;17.60;;
30127;SDS011;16942;53.196;6.592;2023-05-07T10:07:25;24.60;;;16.87;;
30127;SDS011;16942;53.196;6.592;2023-05-07T10:09:52;23.70;;;17.97;;
30127;SDS011;16942;53.196;6.592;2023-05-07T10:12:18;24.33;;;16.77;;
30127;SDS011;16942;53.196;6.592;2023-05-07T10:14:45;24.87;;;16.90;;
30127;SDS011;16942;53.196;6.592;2023-05-07T10:17:13;22.50;;;15.87;;
30127;SDS011;16942;53.196;6.592;2023-05-07T10:19:39;27.47;;;17.53;;
30127;SDS011;16942;53.196;6.592;2023-05-07T10:22:06;25.77;;;17.13;;
30127;SDS011;16942;53.196;6.592;2023-05-07T10:24:32;23.23;;;16.40;;
30127;SDS011;16942;53.196;6.592;2023-05-07T10:27:00;24.30;;;16.77;;
30127;SDS011;16942;53.196;6.592;2023-05-07T10:34:32;20.63;;;15.27;;
30127;SDS011;16942;53.196;6.592;2023-05-07T10:37:00;22.83;;;15.83;;
30127;SDS011;16942;53.196;6.592;2023-05-07T10:39:27;23.93;;;16.83;;
30127;SDS011;16942;53.196;6.592;2023-05-07T10:41:53;22.37;;;16.30;;
30127;SDS011;16942;53.196;6.592;2023-05-07T10:44:28;22.40;;;15.87;;
30127;SDS011;16942;53.196;6.592;2023-05-07T10:47:07;22.40;;;16.43;;
30127;SDS011;16942;53.196;6.592;2023-05-07T10:52:24;21.63;;;16.37;;
30127;SDS011;16942;53.196;6.592;2023-05-07T10:57:39;19.90;;;15.00;;
30127;SDS011;16942;53.196;6.592;2023-05-07T11:05:25;19.03;;;14.83;;
30127;SDS011;16942;53.196;6.592;2023-05-07T11:07:58;21.10;;;14.67;;
30127;SDS011;16942;53.196;6.592;2023-05-07T11:13:09;20.63;;;14.38;;
30127;SDS011;16942;53.196;6.592;2023-05-07T11:15:38;18.73;;;14.95;;
30127;SDS011;16942;53.196;6.592;2023-05-07T11:18:07;20.25;;;15.13;;
30127;SDS011;16942;53.196;6.592;2023-05-07T11:20:52;18.20;;;14.40;;
30127;SDS011;16942;53.196;6.592;2023-05-07T11:26:00;18.38;;;14.27;;
30127;SDS011;16942;53.196;6.592;2023-05-07T11:28:29;16.17;;;13.43;;
30127;SDS011;16942;53.196;6.592;2023-05-07T11:30:56;17.55;;;14.38;;
30127;SDS011;16942;53.196;6.592;2023-05-07T11:33:22;18.77;;;14.60;;
30127;SDS011;16942;53.196;6.592;2023-05-07T11:35:54;17.08;;;14.48;;
30127;SDS011;16942;53.196;6.592;2023-05-07T11:38:21;17.05;;;13.57;;
30127;SDS011;16942;53.196;6.592;2023-05-07T11:40:57;17.63;;;13.13;;
30127;SDS011;16942;53.196;6.592;2023-05-07T11:43:25;14.70;;;13.07;;
30127;SDS011;16942;53.196;6.592;2023-05-07T11:45:52;15.85;;;13.18;;
30127;SDS011;16942;53.196;6.592;2023-05-07T11:48:18;16.30;;;13.27;;
30127;SDS011;16942;53.196;6.592;2023-05-07T11:53:19;17.05;;;13.00;;
30127;SDS011;16942;53.196;6.592;2023-05-07T11:55:46;17.50;;;12.93;;
30127;SDS011;16942;53.196;6.592;2023-05-07T11:58:12;14.65;;;12.48;;
30127;SDS011;16942;53.196;6.592;2023-05-07T12:00:38;15.75;;;13.32;;
30127;SDS011;16942;53.196;6.592;2023-05-07T12:03:04;16.92;;;13.23;;
30127;SDS011;16942;53.196;6.592;2023-05-07T12:05:31;15.13;;;13.05;;
30127;SDS011;16942;53.196;6.592;2023-05-07T12:07:57;15.70;;;12.98;;
30127;SDS011;16942;53.196;6.592;2023-05-07T12:10:23;15.02;;;12.48;;
30127;SDS011;16942;53.196;6.592;2023-05-07T12:12:50;14.75;;;12.32;;
30127;SDS011;16942;53.196;6.592;2023-05-07T12:15:16;14.32;;;12.20;;
30127;SDS011;16942;53.196;6.592;2023-05-07T12:17:43;13.98;;;11.85;;
30127;SDS011;16942;53.196;6.592;2023-05-07T12:20:09;14.60;;;12.35;;
30127;SDS011;16942;53.196;6.592;2023-05-07T12:22:35;14.10;;;12.23;;
30127;SDS011;16942;53.196;6.592;2023-05-07T12:25:02;13.32;;;11.85;;
30127;SDS011;16942;53.196;6.592;2023-05-07T12:27:28;17.88;;;13.32;;
30127;SDS011;16942;53.196;6.592;2023-05-07T12:29:57;14.20;;;12.70;;
30127;SDS011;16942;53.196;6.592;2023-05-07T12:32:24;18.20;;;13.27;;
30127;SDS011;16942;53.196;6.592;2023-05-07T12:34:50;14.57;;;11.80;;
30127;SDS011;16942;53.196;6.592;2023-05-07T12:37:17;14.35;;;12.00;;
30127;SDS011;16942;53.196;6.592;2023-05-07T12:39:48;14.25;;;12.65;;
30127;SDS011;16942;53.196;6.592;2023-05-07T12:42:14;12.82;;;11.52;;
30127;SDS011;16942;53.196;6.592;2023-05-07T12:44:41;15.18;;;11.52;;
30127;SDS011;16942;53.196;6.592;2023-05-07T12:47:07;14.38;;;12.75;;
30127;SDS011;16942;53.196;6.592;2023-05-07T12:49:34;11.88;;;10.48;;
30127;SDS011;16942;53.196;6.592;2023-05-07T12:52:03;12.98;;;11.60;;
30127;SDS011;16942;53.196;6.592;2023-05-07T12:54:30;14.60;;;12.38;;
30127;SDS011;16942;53.196;6.592;2023-05-07T12:57:00;16.45;;;11.55;;
30127;SDS011;16942;53.196;6.592;2023-05-07T12:59:36;12.52;;;11.27;;
30127;SDS011;16942;53.196;6.592;2023-05-07T13:02:02;13.05;;;11.70;;
30127;SDS011;16942;53.196;6.592;2023-05-07T13:04:28;12.32;;;11.02;;
30127;SDS011;16942;53.196;6.592;2023-05-07T13:06:54;13.57;;;12.18;;
30127;SDS011;16942;53.196;6.592;2023-05-07T13:09:20;16.77;;;12.63;;
30127;SDS011;16942;53.196;6.592;2023-05-07T13:11:46;12.88;;;11.57;;
30127;SDS011;16942;53.196;6.592;2023-05-07T13:14:12;13.10;;;10.63;;
30127;SDS011;16942;53.196;6.592;2023-05-07T13:16:38;13.20;;;11.98;;
30127;SDS011;16942;53.196;6.592;2023-05-07T13:19:04;14.85;;;12.13;;
30127;SDS011;16942;53.196;6.592;2023-05-07T13:21:30;13.05;;;11.70;;
30127;SDS011;16942;53.196;6.592;2023-05-07T13:23:57;15.30;;;10.65;;
30127;SDS011;16942;53.196;6.592;2023-05-07T13:26:24;11.80;;;10.63;;
30127;SDS011;16942;53.196;6.592;2023-05-07T13:28:50;12.48;;;10.85;;
30127;SDS011;16942;53.196;6.592;2023-05-07T13:31:16;11.25;;;10.35;;
30127;SDS011;16942;53.196;6.592;2023-05-07T13:33:43;11.18;;;10.15;;
30127;SDS011;16942;53.196;6.592;2023-05-07T13:36:09;11.20;;;9.27;;
30127;SDS011;16942;53.196;6.592;2023-05-07T13:38:35;10.50;;;9.45;;
30127;SDS011;16942;53.196;6.592;2023-05-07T13:41:01;10.65;;;9.70;;
30127;SDS011;16942;53.196;6.592;2023-05-07T13:43:27;11.65;;;10.57;;
30127;SDS011;16942;53.196;6.592;2023-05-07T13:45:53;10.23;;;9.23;;
30127;SDS011;16942;53.196;6.592;2023-05-07T13:48:19;9.65;;;8.80;;
30127;SDS011;16942;53.196;6.592;2023-05-07T13:50:45;10.07;;;9.27;;
30127;SDS011;16942;53.196;6.592;2023-05-07T13:53:11;9.88;;;9.13;;
30127;SDS011;16942;53.196;6.592;2023-05-07T13:55:37;10.45;;;9.43;;
30127;SDS011;16942;53.196;6.592;2023-05-07T13:58:03;9.75;;;8.90;;
30127;SDS011;16942;53.196;6.592;2023-05-07T14:00:29;9.50;;;8.70;;
30127;SDS011;16942;53.196;6.592;2023-05-07T14:02:55;10.07;;;9.07;;
30127;SDS011;16942;53.196;6.592;2023-05-07T14:05:22;9.50;;;8.70;;
30127;SDS011;16942;53.196;6.592;2023-05-07T14:07:52;9.98;;;9.10;;
30127;SDS011;16942;53.196;6.592;2023-05-07T14:10:18;10.20;;;9.30;;
30127;SDS011;16942;53.196;6.592;2023-05-07T14:12:44;10.10;;;9.27;;
30127;SDS011;16942;53.196;6.592;2023-05-07T14:15:11;8.98;;;8.18;;
30127;SDS011;16942;53.196;6.592;2023-05-07T14:17:37;9.25;;;8.55;;
30127;SDS011;16942;53.196;6.592;2023-05-07T14:20:03;9.35;;;8.57;;
30127;SDS011;16942;53.196;6.592;2023-05-07T14:22:31;10.90;;;9.80;;
30127;SDS011;16942;53.196;6.592;2023-05-07T14:24:57;11.35;;;10.30;;
30127;SDS011;16942;53.196;6.592;2023-05-07T14:27:23;10.02;;;9.27;;
30127;SDS011;16942;53.196;6.592;2023-05-07T14:29:49;20.77;;;12.05;;
30127;SDS011;16942;53.196;6.592;2023-05-07T14:32:19;22.80;;;11.50;;
30127;SDS011;16942;53.196;6.592;2023-05-07T14:34:45;9.57;;;8.68;;
30127;SDS011;16942;53.196;6.592;2023-05-07T14:37:11;9.73;;;9.00;;
30127;SDS011;16942;53.196;6.592;2023-05-07T14:39:37;10.73;;;9.73;;
30127;SDS011;16942;53.196;6.592;2023-05-07T14:42:03;9.38;;;8.48;;
30127;SDS011;16942;53.196;6.592;2023-05-07T14:44:30;10.10;;;9.23;;